• Join FlightAware (Why Join?)
  • Login
  • US Flag 
06:41PM EDT


 

Airport Tracker/Info


-or-


 

Live Flight TrackerFlight Track Log ✈ SWA3675 ✈ 01-Jul-2013 ✈ KBWI - KCLT

Flight Track Log - Related Links

Times and Time Zones

All times are in EDT time to prevent confusion due to time zone crossing. See the SWA3675 flight status page for this flight to view local times or setup timezone preferences in your user account.

Time Position Orientation Groundspeed Altitude Reporting Facility
EDT Latitude Longitude Course Direction KTS MPH feet Rate Location/Type
09:20PM 39.1333 -76.6667 211° Southwest 181 208 2,400  Level Potomac TRACON
09:21PM 39.1667 -76.7500 297° West 234 269 5,000 2,940 Climbing Potomac TRACON
09:22PM 39.1833 -76.8333 284° West 284 327 8,400 3,480 Climbing Potomac TRACON
09:23PM 39.2167 -76.9500 290° West 298 343 12,400 2,940 Climbing Potomac TRACON
09:24PM 39.1500 -77.0167 218° Southwest 329 379 14,300 2,460 Climbing Potomac TRACON
09:25PM 39.0667 -77.0833 212° Southwest 351 404 17,400 2,400 Climbing Potomac TRACON
09:26PM 39.1222 -77.2143 211° Southwest  Level FlightAware Approximate
09:28PM 38.8561 -77.2578 213° Southwest 387 445 23,000  Level Washington Center
09:29PM 38.7733 -77.3464 220° Southwest 392 451 23,000 300 Level Washington Center
09:30PM 38.6886 -77.4375 220° Southwest 397 457 23,700 1,380 Climbing Washington Center
09:31PM 38.6039 -77.5283 220° Southwest 397 457 25,800 2,040 Climbing Washington Center
09:32PM 38.5189 -77.6192 220° Southwest 402 463 27,800 1,740 Climbing Washington Center
09:33PM 38.4319 -77.7119 220° Southwest 410 472 29,400 1,740 Climbing Washington Center
09:34PM 38.3425 -77.8075 220° Southwest 416 479 31,300 1,740 Climbing Washington Center
09:35PM 38.2575 -77.8975 220° Southwest 411 473 32,900 1,440 Climbing Washington Center
09:36PM 38.1681 -77.9925 220° Southwest 411 473 34,300 1,500 Climbing Washington Center
09:37PM 38.0786 -78.0844 219° Southwest 411 473 36,000 1,920 Climbing Washington Center
09:38PM 37.9950 -78.1897 225° Southwest 395 455 38,200 1,740 Climbing Washington Center
09:39PM 37.9219 -78.2900 227° Southwest 388 447 39,500 840 Climbing Washington Center
09:40PM 37.8506 -78.3953 229° Southwest 393 452 40,000 240 Climbing Washington Center
09:41PM 37.7772 -78.4978 228° Southwest 393 452 40,000  Level Washington Center
09:42PM 37.7144 -78.5897 229° Southwest 400 460 40,000  Level Washington Center
09:43PM 37.6431 -78.6919 229° Southwest 400 460 40,000  Level Washington Center
09:44PM 37.5694 -78.7936 228° Southwest 400 460 40,000  Level Washington Center
09:45PM 37.4981 -78.8928 228° Southwest 400 460 40,000 -420 Level Washington Center
09:46PM 37.4178 -79.0044 228° Southwest 400 460 39,200 -960 Descending Washington Center
09:47PM 37.3439 -79.1056 227° Southwest 400 460 38,100 -1,260 Descending Washington Center
09:48PM 37.2719 -79.2092 229° Southwest 400 460 36,800 -1,140 Descending Washington Center
09:49PM 37.1858 -79.2939 218° Southwest 395 455 35,900 -1,200 Descending Washington Center
09:50PM 37.0958 -79.3675 213° Southwest 395 455 34,400 -1,500 Descending Washington Center
09:51PM 37.0144 -79.4339 213° Southwest 395 455 32,900 -1,560 Descending Washington Center
09:52PM 36.9200 -79.5147 214° Southwest 404 465 31,400 -1,560 Descending Washington Center
09:53PM 36.8258 -79.5906 213° Southwest 404 465 29,900 -1,560 Descending Washington Center
09:54PM 36.7336 -79.6661 213° Southwest 404 465 28,300 -1,560 Descending Washington Center
09:56PM 36.5425 -79.8192 213° Southwest 381 438 25,100 -1,560 Descending Atlanta Center
09:57PM 36.4472 -79.8939 212° Southwest 381 438 23,500 -1,260 Descending Atlanta Center
09:58PM 36.3803 -79.9489 213° Southwest 381 438 22,600 -780 Descending Atlanta Center
09:59PM 36.2828 -80.0311 214° Southwest 368 423 22,000 -300 Descending Atlanta Center
10:00PM 36.2036 -80.0994 215° Southwest 362 417 22,000 -300 Level Atlanta Center
10:01PM 36.1283 -80.1622 214° Southwest 362 417 21,500 -4,500 Descending Atlanta Center
10:02PM 36.0411 -80.2381 215° Southwest 356 410 13,000 -2,100 Descending Atlanta Center
10:03PM 35.9742 -80.2953 215° Southwest 350 403 17,400 1,200 Climbing Atlanta Center
10:04PM 35.8969 -80.3656 216° Southwest 335 386 15,500 -1,800 Descending Atlanta Center
10:05PM 35.8256 -80.4250 214° Southwest 319 367 13,800 -1,500 Descending Atlanta Center
10:05PM 35.7911 -80.4547 215° Southwest 294 338 13,300 -1,320 Descending Atlanta Center
10:06PM 35.7300 -80.5058 214° Southwest 270 311 11,800 -1,560 Descending Atlanta Center
10:07PM 35.6683 -80.5342 200° South 264 304 10,400 -1,500 Descending Atlanta Center
10:08PM 35.6247 -80.5464 193° South 265 305 9,600 -1,080 Descending Atlanta Center
10:09PM 35.5586 -80.5694 196° South 254 292 8,800 -900 Descending Atlanta Center
10:10PM 35.5008 -80.5897 196° South 248 285 7,900 -1,080 Descending Atlanta Center
10:11PM 35.4453 -80.6228 206° Southwest 238 274 6,700 -1,020 Descending Atlanta Center
10:12PM 35.4011 -80.6856 229° Southwest 238 274 5,900 -1,080 Descending Atlanta Center
10:13PM 35.3369 -80.7775 229° Southwest 218 251 4,000 -1,200 Descending Atlanta Center
10:14PM 35.3008 -80.8272 228° Southwest 177 204 3,000 -900 Descending Atlanta Center
10:15PM 35.2683 -80.8667 225° Southwest 165 190 2,200 -780 Descending Atlanta Center
10:17PM 35.2464 -80.9006 232° Southwest 132 152 1,500 -720 Descending Atlanta Center
10:19PM 35.2000 -80.9333 219° Southwest  Level FlightAware Approximate
10:26PM 35.2137 -80.9491 219° Southwest  Level Estimated